sensor_id;sensor_type;location;lat;lon;timestamp;pressure;altitude;pressure_sealevel;temperature;humidity
75460;BME280;64039;53.060;9.342;2024-01-30T00:01:15;102375.63;;;2.66;100.00
75460;BME280;64039;53.060;9.342;2024-01-30T00:03:40;102384.97;;;2.54;100.00
75460;BME280;64039;53.060;9.342;2024-01-30T00:06:07;102385.88;;;2.44;100.00
75460;BME280;64039;53.060;9.342;2024-01-30T00:08:33;102379.34;;;2.47;100.00
75460;BME280;64039;53.060;9.342;2024-01-30T00:10:58;102379.78;;;2.64;100.00
75460;BME280;64039;53.060;9.342;2024-01-30T00:13:24;102372.56;;;2.60;100.00
75460;BME280;64039;53.060;9.342;2024-01-30T00:15:49;102374.41;;;2.50;100.00
75460;BME280;64039;53.060;9.342;2024-01-30T00:18:14;102375.38;;;2.41;100.00
75460;BME280;64039;53.060;9.342;2024-01-30T00:20:40;102373.09;;;2.33;100.00
75460;BME280;64039;53.060;9.342;2024-01-30T00:23:06;102371.88;;;2.40;100.00
75460;BME280;64039;53.060;9.342;2024-01-30T00:25:31;102369.31;;;2.40;100.00
75460;BME280;64039;53.060;9.342;2024-01-30T00:27:58;102369.56;;;2.43;100.00
75460;BME280;64039;53.060;9.342;2024-01-30T00:30:23;102363.56;;;2.43;100.00
75460;BME280;64039;53.060;9.342;2024-01-30T00:32:49;102366.91;;;2.42;100.00
75460;BME280;64039;53.060;9.342;2024-01-30T00:35:14;102363.97;;;2.37;100.00
75460;BME280;64039;53.060;9.342;2024-01-30T00:37:40;102364.47;;;2.33;100.00
75460;BME280;64039;53.060;9.342;2024-01-30T00:40:05;102368.94;;;2.35;100.00
75460;BME280;64039;53.060;9.342;2024-01-30T00:42:31;102364.44;;;2.43;100.00
75460;BME280;64039;53.060;9.342;2024-01-30T00:44:57;102366.63;;;2.39;100.00
75460;BME280;64039;53.060;9.342;2024-01-30T00:47:23;102369.47;;;2.42;100.00
75460;BME280;64039;53.060;9.342;2024-01-30T00:49:48;102369.97;;;2.38;100.00
75460;BME280;64039;53.060;9.342;2024-01-30T00:52:13;102368.47;;;2.29;100.00
75460;BME280;64039;53.060;9.342;2024-01-30T00:54:39;102368.88;;;2.24;100.00
75460;BME280;64039;53.060;9.342;2024-01-30T00:57:04;102366.31;;;2.24;100.00
75460;BME280;64039;53.060;9.342;2024-01-30T00:59:30;102364.75;;;2.26;100.00
75460;BME280;64039;53.060;9.342;2024-01-30T01:01:55;102365.91;;;2.29;100.00
75460;BME280;64039;53.060;9.342;2024-01-30T01:04:21;102364.28;;;2.19;100.00
75460;BME280;64039;53.060;9.342;2024-01-30T01:06:47;102365.31;;;2.22;100.00
75460;BME280;64039;53.060;9.342;2024-01-30T01:09:12;102362.38;;;2.17;100.00
75460;BME280;64039;53.060;9.342;2024-01-30T01:11:38;102365.56;;;2.14;100.00
75460;BME280;64039;53.060;9.342;2024-01-30T01:14:04;102368.13;;;2.14;100.00
75460;BME280;64039;53.060;9.342;2024-01-30T01:16:30;102364.78;;;2.15;100.00
75460;BME280;64039;53.060;9.342;2024-01-30T01:18:56;102363.78;;;2.13;100.00
75460;BME280;64039;53.060;9.342;2024-01-30T01:21:21;102358.38;;;2.20;100.00
75460;BME280;64039;53.060;9.342;2024-01-30T01:23:46;102364.41;;;2.11;100.00
75460;BME280;64039;53.060;9.342;2024-01-30T01:26:12;102357.84;;;2.14;100.00
75460;BME280;64039;53.060;9.342;2024-01-30T01:28:40;102361.91;;;2.00;100.00
75460;BME280;64039;53.060;9.342;2024-01-30T01:31:06;102350.88;;;2.01;100.00
75460;BME280;64039;53.060;9.342;2024-01-30T01:33:32;102359.44;;;2.02;100.00
75460;BME280;64039;53.060;9.342;2024-01-30T01:36:01;102352.09;;;2.17;100.00
75460;BME280;64039;53.060;9.342;2024-01-30T01:38:28;102342.63;;;1.95;100.00
75460;BME280;64039;53.060;9.342;2024-01-30T01:40:53;102348.91;;;1.99;100.00
75460;BME280;64039;53.060;9.342;2024-01-30T01:43:19;102348.63;;;2.06;100.00
75460;BME280;64039;53.060;9.342;2024-01-30T01:45:45;102343.16;;;2.01;100.00
75460;BME280;64039;53.060;9.342;2024-01-30T01:48:11;102345.81;;;2.13;100.00
75460;BME280;64039;53.060;9.342;2024-01-30T01:50:38;102340.81;;;2.04;100.00
75460;BME280;64039;53.060;9.342;2024-01-30T01:53:05;102334.94;;;1.95;100.00
75460;BME280;64039;53.060;9.342;2024-01-30T01:55:31;102332.34;;;2.06;100.00
75460;BME280;64039;53.060;9.342;2024-01-30T01:57:57;102324.25;;;2.11;100.00
75460;BME280;64039;53.060;9.342;2024-01-30T02:00:23;102323.84;;;2.17;100.00
75460;BME280;64039;53.060;9.342;2024-01-30T02:02:49;102325.00;;;2.10;100.00
75460;BME280;64039;53.060;9.342;2024-01-30T02:05:15;102320.06;;;2.24;100.00
75460;BME280;64039;53.060;9.342;2024-01-30T02:07:41;102312.59;;;2.27;100.00
75460;BME280;64039;53.060;9.342;2024-01-30T02:10:08;102314.88;;;2.34;100.00
75460;BME280;64039;53.060;9.342;2024-01-30T02:12:34;102310.66;;;2.34;100.00
75460;BME280;64039;53.060;9.342;2024-01-30T02:14:59;102310.50;;;2.33;100.00
75460;BME280;64039;53.060;9.342;2024-01-30T02:17:25;102309.59;;;2.43;100.00
75460;BME280;64039;53.060;9.342;2024-01-30T02:19:51;102307.16;;;2.34;100.00
75460;BME280;64039;53.060;9.342;2024-01-30T02:22:17;102302.88;;;2.45;100.00
75460;BME280;64039;53.060;9.342;2024-01-30T02:24:43;102306.66;;;2.38;100.00
75460;BME280;64039;53.060;9.342;2024-01-30T02:27:08;102302.13;;;2.35;100.00
75460;BME280;64039;53.060;9.342;2024-01-30T02:29:34;102304.94;;;2.16;100.00
75460;BME280;64039;53.060;9.342;2024-01-30T02:31:59;102298.66;;;2.13;100.00
75460;BME280;64039;53.060;9.342;2024-01-30T02:34:25;102297.41;;;2.08;100.00
75460;BME280;64039;53.060;9.342;2024-01-30T02:36:50;102295.63;;;2.07;100.00
75460;BME280;64039;53.060;9.342;2024-01-30T02:39:15;102291.34;;;2.07;100.00
75460;BME280;64039;53.060;9.342;2024-01-30T02:41:41;102300.34;;;2.12;100.00
75460;BME280;64039;53.060;9.342;2024-01-30T02:44:06;102294.00;;;2.19;100.00
75460;BME280;64039;53.060;9.342;2024-01-30T02:46:32;102295.94;;;2.22;100.00
75460;BME280;64039;53.060;9.342;2024-01-30T02:48:57;102299.00;;;2.28;100.00
75460;BME280;64039;53.060;9.342;2024-01-30T02:51:22;102298.22;;;2.51;100.00
75460;BME280;64039;53.060;9.342;2024-01-30T02:53:48;102296.94;;;2.46;100.00
75460;BME280;64039;53.060;9.342;2024-01-30T02:56:13;102295.34;;;2.36;100.00
75460;BME280;64039;53.060;9.342;2024-01-30T02:58:39;102288.22;;;2.22;100.00
75460;BME280;64039;53.060;9.342;2024-01-30T03:01:05;102284.88;;;2.23;100.00
75460;BME280;64039;53.060;9.342;2024-01-30T03:03:30;102280.22;;;2.29;100.00
75460;BME280;64039;53.060;9.342;2024-01-30T03:05:56;102281.72;;;2.37;100.00
75460;BME280;64039;53.060;9.342;2024-01-30T03:08:21;102272.78;;;2.44;100.00
75460;BME280;64039;53.060;9.342;2024-01-30T03:10:47;102272.16;;;2.46;100.00
75460;BME280;64039;53.060;9.342;2024-01-30T03:13:12;102269.69;;;2.48;100.00
75460;BME280;64039;53.060;9.342;2024-01-30T03:15:37;102270.22;;;2.44;100.00
75460;BME280;64039;53.060;9.342;2024-01-30T03:18:03;102263.59;;;2.35;100.00
75460;BME280;64039;53.060;9.342;2024-01-30T03:20:31;102245.69;;;2.47;100.00
75460;BME280;64039;53.060;9.342;2024-01-30T03:22:57;102250.16;;;2.50;100.00
75460;BME280;64039;53.060;9.342;2024-01-30T03:25:24;102248.06;;;2.34;100.00
75460;BME280;64039;53.060;9.342;2024-01-30T03:27:50;102255.78;;;2.34;100.00
75460;BME280;64039;53.060;9.342;2024-01-30T03:30:15;102252.13;;;2.20;100.00
75460;BME280;64039;53.060;9.342;2024-01-30T03:32:40;102249.09;;;2.14;100.00
75460;BME280;64039;53.060;9.342;2024-01-30T03:35:06;102257.03;;;2.17;100.00
75460;BME280;64039;53.060;9.342;2024-01-30T03:37:32;102253.09;;;2.10;100.00
75460;BME280;64039;53.060;9.342;2024-01-30T03:39:57;102250.31;;;2.19;100.00
75460;BME280;64039;53.060;9.342;2024-01-30T03:42:22;102247.66;;;2.17;100.00
75460;BME280;64039;53.060;9.342;2024-01-30T03:44:48;102254.84;;;2.22;100.00
75460;BME280;64039;53.060;9.342;2024-01-30T03:47:13;102257.34;;;2.10;100.00
75460;BME280;64039;53.060;9.342;2024-01-30T03:49:39;102250.56;;;2.00;100.00
75460;BME280;64039;53.060;9.342;2024-01-30T03:52:05;102248.47;;;2.06;100.00
75460;BME280;64039;53.060;9.342;2024-01-30T03:54:30;102249.03;;;2.02;100.00
75460;BME280;64039;53.060;9.342;2024-01-30T03:56:55;102248.53;;;1.96;100.00
75460;BME280;64039;53.060;9.342;2024-01-30T03:59:21;102250.59;;;1.89;100.00
75460;BME280;64039;53.060;9.342;2024-01-30T04:01:52;102251.63;;;1.92;100.00
75460;BME280;64039;53.060;9.342;2024-01-30T04:04:18;102245.38;;;2.10;100.00
75460;BME280;64039;53.060;9.342;2024-01-30T04:06:44;102252.31;;;2.11;100.00
75460;BME280;64039;53.060;9.342;2024-01-30T04:09:09;102247.53;;;2.16;100.00
75460;BME280;64039;53.060;9.342;2024-01-30T04:11:35;102244.66;;;2.23;100.00
75460;BME280;64039;53.060;9.342;2024-01-30T04:14:00;102248.47;;;2.28;100.00
75460;BME280;64039;53.060;9.342;2024-01-30T04:16:26;102241.19;;;2.23;100.00
75460;BME280;64039;53.060;9.342;2024-01-30T04:18:52;102238.09;;;2.27;100.00
75460;BME280;64039;53.060;9.342;2024-01-30T04:21:17;102241.44;;;2.26;100.00
75460;BME280;64039;53.060;9.342;2024-01-30T04:23:43;102237.78;;;2.12;100.00
75460;BME280;64039;53.060;9.342;2024-01-30T04:26:08;102243.19;;;2.15;100.00
75460;BME280;64039;53.060;9.342;2024-01-30T04:28:34;102242.63;;;2.19;100.00
75460;BME280;64039;53.060;9.342;2024-01-30T04:30:59;102244.19;;;2.17;100.00
75460;BME280;64039;53.060;9.342;2024-01-30T04:33:25;102242.88;;;2.22;100.00
75460;BME280;64039;53.060;9.342;2024-01-30T04:35:50;102239.41;;;2.22;100.00
75460;BME280;64039;53.060;9.342;2024-01-30T04:38:17;102240.06;;;2.19;100.00
75460;BME280;64039;53.060;9.342;2024-01-30T04:40:42;102238.97;;;2.27;100.00
75460;BME280;64039;53.060;9.342;2024-01-30T04:43:08;102246.94;;;2.30;100.00
75460;BME280;64039;53.060;9.342;2024-01-30T04:45:33;102237.31;;;2.28;100.00
75460;BME280;64039;53.060;9.342;2024-01-30T04:47:58;102240.50;;;2.13;100.00
75460;BME280;64039;53.060;9.342;2024-01-30T04:50:24;102233.66;;;2.14;100.00
75460;BME280;64039;53.060;9.342;2024-01-30T04:52:49;102233.25;;;2.19;100.00
75460;BME280;64039;53.060;9.342;2024-01-30T04:55:15;102225.78;;;2.23;100.00
75460;BME280;64039;53.060;9.342;2024-01-30T04:57:40;102232.34;;;2.19;100.00
75460;BME280;64039;53.060;9.342;2024-01-30T05:00:06;102226.44;;;2.20;100.00
75460;BME280;64039;53.060;9.342;2024-01-30T05:02:32;102217.94;;;2.21;100.00
75460;BME280;64039;53.060;9.342;2024-01-30T05:04:57;102216.34;;;2.33;100.00
75460;BME280;64039;53.060;9.342;2024-01-30T05:07:24;102219.13;;;2.36;100.00
75460;BME280;64039;53.060;9.342;2024-01-30T05:09:50;102221.59;;;2.35;100.00
75460;BME280;64039;53.060;9.342;2024-01-30T05:12:15;102223.50;;;2.38;100.00
75460;BME280;64039;53.060;9.342;2024-01-30T05:14:41;102224.22;;;2.47;100.00
75460;BME280;64039;53.060;9.342;2024-01-30T05:17:06;102215.97;;;2.51;100.00
75460;BME280;64039;53.060;9.342;2024-01-30T05:19:34;102236.19;;;2.46;100.00
75460;BME280;64039;53.060;9.342;2024-01-30T05:22:00;102232.75;;;2.58;100.00
75460;BME280;64039;53.060;9.342;2024-01-30T05:24:25;102229.50;;;2.60;100.00
75460;BME280;64039;53.060;9.342;2024-01-30T05:26:50;102227.28;;;2.65;100.00
75460;BME280;64039;53.060;9.342;2024-01-30T05:29:16;102230.22;;;2.70;100.00
75460;BME280;64039;53.060;9.342;2024-01-30T05:31:42;102232.13;;;2.72;100.00
75460;BME280;64039;53.060;9.342;2024-01-30T05:34:07;102230.03;;;2.78;100.00
75460;BME280;64039;53.060;9.342;2024-01-30T05:36:34;102222.50;;;2.70;100.00
75460;BME280;64039;53.060;9.342;2024-01-30T05:38:59;102226.84;;;2.71;100.00
75460;BME280;64039;53.060;9.342;2024-01-30T05:41:25;102222.84;;;2.74;100.00
75460;BME280;64039;53.060;9.342;2024-01-30T05:43:50;102220.63;;;2.79;100.00
75460;BME280;64039;53.060;9.342;2024-01-30T05:46:16;102223.09;;;2.77;100.00
75460;BME280;64039;53.060;9.342;2024-01-30T05:48:41;102224.19;;;2.69;100.00
75460;BME280;64039;53.060;9.342;2024-01-30T05:51:07;102223.16;;;2.67;100.00
75460;BME280;64039;53.060;9.342;2024-01-30T05:53:33;102216.47;;;2.69;100.00
75460;BME280;64039;53.060;9.342;2024-01-30T05:56:01;102206.44;;;2.72;100.00
75460;BME280;64039;53.060;9.342;2024-01-30T05:58:27;102216.91;;;2.63;100.00
75460;BME280;64039;53.060;9.342;2024-01-30T06:00:53;102214.56;;;2.66;100.00
75460;BME280;64039;53.060;9.342;2024-01-30T06:03:18;102211.09;;;2.66;100.00
75460;BME280;64039;53.060;9.342;2024-01-30T06:05:44;102210.75;;;2.73;100.00
75460;BME280;64039;53.060;9.342;2024-01-30T06:08:10;102213.44;;;2.63;100.00
75460;BME280;64039;53.060;9.342;2024-01-30T06:10:35;102213.44;;;2.63;100.00
75460;BME280;64039;53.060;9.342;2024-01-30T06:13:01;102216.16;;;2.76;100.00
75460;BME280;64039;53.060;9.342;2024-01-30T06:15:27;102213.59;;;2.76;100.00
75460;BME280;64039;53.060;9.342;2024-01-30T06:17:55;102211.75;;;2.63;100.00
75460;BME280;64039;53.060;9.342;2024-01-30T06:20:20;102217.34;;;2.70;100.00
75460;BME280;64039;53.060;9.342;2024-01-30T06:22:46;102215.81;;;2.72;100.00
75460;BME280;64039;53.060;9.342;2024-01-30T06:25:11;102208.09;;;2.72;100.00
75460;BME280;64039;53.060;9.342;2024-01-30T06:27:37;102203.88;;;2.84;100.00
75460;BME280;64039;53.060;9.342;2024-01-30T06:30:04;102205.78;;;2.87;100.00
75460;BME280;64039;53.060;9.342;2024-01-30T06:32:30;102199.16;;;2.78;100.00
75460;BME280;64039;53.060;9.342;2024-01-30T06:35:02;102201.41;;;2.74;100.00
75460;BME280;64039;53.060;9.342;2024-01-30T06:37:27;102193.25;;;2.79;100.00
75460;BME280;64039;53.060;9.342;2024-01-30T06:39:53;102198.94;;;2.75;100.00
75460;BME280;64039;53.060;9.342;2024-01-30T06:42:18;102193.78;;;2.75;100.00
75460;BME280;64039;53.060;9.342;2024-01-30T06:44:44;102195.91;;;2.69;100.00
75460;BME280;64039;53.060;9.342;2024-01-30T06:47:10;102198.22;;;2.66;100.00
75460;BME280;64039;53.060;9.342;2024-01-30T06:49:35;102201.78;;;2.56;100.00
75460;BME280;64039;53.060;9.342;2024-01-30T06:52:05;102199.31;;;2.58;100.00
75460;BME280;64039;53.060;9.342;2024-01-30T06:54:30;102202.94;;;2.72;100.00
75460;BME280;64039;53.060;9.342;2024-01-30T06:56:56;102208.72;;;2.57;100.00
75460;BME280;64039;53.060;9.342;2024-01-30T06:59:21;102209.06;;;2.62;100.00
75460;BME280;64039;53.060;9.342;2024-01-30T07:01:47;102204.75;;;2.73;100.00
75460;BME280;64039;53.060;9.342;2024-01-30T07:04:12;102205.84;;;2.64;100.00
75460;BME280;64039;53.060;9.342;2024-01-30T07:06:38;102199.47;;;2.59;100.00
75460;BME280;64039;53.060;9.342;2024-01-30T07:09:03;102203.25;;;2.64;100.00
75460;BME280;64039;53.060;9.342;2024-01-30T07:11:28;102194.22;;;2.70;100.00
75460;BME280;64039;53.060;9.342;2024-01-30T07:13:54;102192.47;;;2.80;100.00
75460;BME280;64039;53.060;9.342;2024-01-30T07:16:19;102183.16;;;2.71;100.00
75460;BME280;64039;53.060;9.342;2024-01-30T07:18:45;102193.41;;;2.59;100.00
75460;BME280;64039;53.060;9.342;2024-01-30T07:21:11;102190.75;;;2.69;100.00
75460;BME280;64039;53.060;9.342;2024-01-30T07:23:36;102193.56;;;2.72;100.00
75460;BME280;64039;53.060;9.342;2024-01-30T07:26:07;102186.31;;;2.78;100.00
75460;BME280;64039;53.060;9.342;2024-01-30T07:28:34;102185.41;;;2.90;100.00
75460;BME280;64039;53.060;9.342;2024-01-30T07:31:00;102188.22;;;2.93;100.00
75460;BME280;64039;53.060;9.342;2024-01-30T07:33:25;102188.22;;;2.93;100.00
75460;BME280;64039;53.060;9.342;2024-01-30T07:35:52;102190.25;;;2.97;100.00
75460;BME280;64039;53.060;9.342;2024-01-30T07:38:18;102194.50;;;3.08;100.00
75460;BME280;64039;53.060;9.342;2024-01-30T07:40:43;102193.63;;;3.08;100.00
75460;BME280;64039;53.060;9.342;2024-01-30T07:43:09;102184.00;;;3.05;100.00
75460;BME280;64039;53.060;9.342;2024-01-30T07:45:34;102183.53;;;3.11;100.00
75460;BME280;64039;53.060;9.342;2024-01-30T07:48:00;102177.75;;;3.25;100.00
75460;BME280;64039;53.060;9.342;2024-01-30T07:50:26;102177.06;;;3.40;100.00
75460;BME280;64039;53.060;9.342;2024-01-30T07:52:52;102172.16;;;3.43;100.00
75460;BME280;64039;53.060;9.342;2024-01-30T07:55:23;102176.03;;;3.38;100.00
75460;BME280;64039;53.060;9.342;2024-01-30T07:57:54;102177.16;;;3.41;100.00
75460;BME280;64039;53.060;9.342;2024-01-30T08:00:21;102171.22;;;3.42;100.00
75460;BME280;64039;53.060;9.342;2024-01-30T08:02:47;102171.03;;;3.51;100.00
75460;BME280;64039;53.060;9.342;2024-01-30T08:05:18;102173.34;;;3.60;100.00
75460;BME280;64039;53.060;9.342;2024-01-30T08:07:43;102166.72;;;3.64;100.00
75460;BME280;64039;53.060;9.342;2024-01-30T08:10:11;102170.97;;;3.75;100.00
75460;BME280;64039;53.060;9.342;2024-01-30T08:12:36;102163.34;;;3.76;100.00
75460;BME280;64039;53.060;9.342;2024-01-30T08:15:02;102170.34;;;3.91;100.00
75460;BME280;64039;53.060;9.342;2024-01-30T08:17:28;102158.28;;;3.90;100.00
75460;BME280;64039;53.060;9.342;2024-01-30T08:19:53;102157.25;;;4.00;100.00
75460;BME280;64039;53.060;9.342;2024-01-30T08:22:19;102151.41;;;4.02;100.00
75460;BME280;64039;53.060;9.342;2024-01-30T08:24:44;102151.72;;;4.07;100.00
75460;BME280;64039;53.060;9.342;2024-01-30T08:27:10;102160.00;;;4.15;100.00
75460;BME280;64039;53.060;9.342;2024-01-30T08:29:35;102152.44;;;4.18;100.00
75460;BME280;64039;53.060;9.342;2024-01-30T08:32:01;102154.00;;;4.28;100.00
75460;BME280;64039;53.060;9.342;2024-01-30T08:34:27;102149.94;;;4.31;100.00
75460;BME280;64039;53.060;9.342;2024-01-30T08:36:53;102154.88;;;4.28;100.00
75460;BME280;64039;53.060;9.342;2024-01-30T08:39:18;102155.13;;;4.45;100.00
75460;BME280;64039;53.060;9.342;2024-01-30T08:41:44;102149.50;;;4.50;100.00
75460;BME280;64039;53.060;9.342;2024-01-30T08:44:11;102153.09;;;4.52;100.00
75460;BME280;64039;53.060;9.342;2024-01-30T08:46:36;102153.59;;;4.60;100.00
75460;BME280;64039;53.060;9.342;2024-01-30T08:49:02;102156.19;;;4.74;100.00
75460;BME280;64039;53.060;9.342;2024-01-30T08:51:29;102154.97;;;4.68;100.00
75460;BME280;64039;53.060;9.342;2024-01-30T08:53:54;102156.22;;;4.87;100.00
75460;BME280;64039;53.060;9.342;2024-01-30T08:56:20;102155.34;;;4.86;100.00
75460;BME280;64039;53.060;9.342;2024-01-30T08:58:45;102150.25;;;4.88;100.00
75460;BME280;64039;53.060;9.342;2024-01-30T09:01:11;102145.09;;;5.01;100.00
75460;BME280;64039;53.060;9.342;2024-01-30T09:03:36;102147.00;;;5.17;100.00
75460;BME280;64039;53.060;9.342;2024-01-30T09:06:08;102148.19;;;5.23;100.00
75460;BME280;64039;53.060;9.342;2024-01-30T09:08:34;102156.72;;;5.35;100.00
75460;BME280;64039;53.060;9.342;2024-01-30T09:10:59;102162.69;;;5.34;100.00
75460;BME280;64039;53.060;9.342;2024-01-30T09:13:25;102159.28;;;5.48;100.00
75460;BME280;64039;53.060;9.342;2024-01-30T09:15:50;102165.53;;;5.52;100.00
75460;BME280;64039;53.060;9.342;2024-01-30T09:18:16;102158.28;;;5.60;100.00
75460;BME280;64039;53.060;9.342;2024-01-30T09:20:41;102164.91;;;5.70;100.00
75460;BME280;64039;53.060;9.342;2024-01-30T09:23:07;102159.34;;;5.77;100.00
75460;BME280;64039;53.060;9.342;2024-01-30T09:25:33;102160.56;;;5.97;100.00
75460;BME280;64039;53.060;9.342;2024-01-30T09:27:59;102155.19;;;6.07;100.00
75460;BME280;64039;53.060;9.342;2024-01-30T09:30:25;102155.06;;;6.19;100.00
75460;BME280;64039;53.060;9.342;2024-01-30T09:32:50;102161.13;;;6.20;100.00
75460;BME280;64039;53.060;9.342;2024-01-30T09:35:16;102161.97;;;6.34;100.00
75460;BME280;64039;53.060;9.342;2024-01-30T09:37:41;102166.50;;;6.38;100.00
75460;BME280;64039;53.060;9.342;2024-01-30T09:40:07;102160.03;;;6.59;100.00
75460;BME280;64039;53.060;9.342;2024-01-30T09:42:36;102156.19;;;6.68;100.00
75460;BME280;64039;53.060;9.342;2024-01-30T09:45:03;102158.16;;;6.72;100.00
75460;BME280;64039;53.060;9.342;2024-01-30T09:47:39;102166.03;;;6.88;100.00
75460;BME280;64039;53.060;9.342;2024-01-30T09:50:06;102155.41;;;6.99;100.00
75460;BME280;64039;53.060;9.342;2024-01-30T09:52:31;102155.13;;;7.09;100.00
75460;BME280;64039;53.060;9.342;2024-01-30T09:54:59;102153.16;;;7.20;100.00
75460;BME280;64039;53.060;9.342;2024-01-30T09:57:25;102151.22;;;7.32;100.00
75460;BME280;64039;53.060;9.342;2024-01-30T09:59:51;102158.09;;;7.47;100.00
75460;BME280;64039;53.060;9.342;2024-01-30T10:02:19;102155.50;;;7.47;100.00
75460;BME280;64039;53.060;9.342;2024-01-30T10:04:47;102157.72;;;7.40;100.00
75460;BME280;64039;53.060;9.342;2024-01-30T10:07:13;102151.06;;;7.61;100.00
75460;BME280;64039;53.060;9.342;2024-01-30T10:09:39;102147.41;;;7.57;100.00
75460;BME280;64039;53.060;9.342;2024-01-30T10:12:05;102153.19;;;7.68;100.00
75460;BME280;64039;53.060;9.342;2024-01-30T10:14:31;102147.44;;;7.74;100.00
75460;BME280;64039;53.060;9.342;2024-01-30T10:16:57;102136.50;;;7.79;100.00
75460;BME280;64039;53.060;9.342;2024-01-30T10:19:23;102140.63;;;7.76;100.00
75460;BME280;64039;53.060;9.342;2024-01-30T10:21:48;102130.34;;;7.94;100.00
75460;BME280;64039;53.060;9.342;2024-01-30T10:24:14;102132.06;;;8.10;100.00
75460;BME280;64039;53.060;9.342;2024-01-30T10:26:39;102132.31;;;8.14;100.00
75460;BME280;64039;53.060;9.342;2024-01-30T10:29:05;102126.94;;;8.11;100.00
75460;BME280;64039;53.060;9.342;2024-01-30T10:31:31;102130.03;;;8.04;100.00
75460;BME280;64039;53.060;9.342;2024-01-30T10:33:56;102136.19;;;8.23;100.00
75460;BME280;64039;53.060;9.342;2024-01-30T10:36:28;102124.59;;;8.16;100.00
75460;BME280;64039;53.060;9.342;2024-01-30T10:38:55;102126.47;;;8.18;100.00
75460;BME280;64039;53.060;9.342;2024-01-30T10:41:26;102120.88;;;8.27;100.00
75460;BME280;64039;53.060;9.342;2024-01-30T10:44:02;102131.25;;;8.11;100.00
75460;BME280;64039;53.060;9.342;2024-01-30T10:46:33;102129.06;;;8.35;100.00
75460;BME280;64039;53.060;9.342;2024-01-30T10:49:00;102134.16;;;8.33;100.00
75460;BME280;64039;53.060;9.342;2024-01-30T10:51:28;102131.25;;;8.27;100.00
75460;BME280;64039;53.060;9.342;2024-01-30T10:53:55;102124.81;;;8.37;100.00
75460;BME280;64039;53.060;9.342;2024-01-30T10:56:21;102127.91;;;8.30;100.00
75460;BME280;64039;53.060;9.342;2024-01-30T10:58:53;102133.34;;;8.34;100.00
75460;BME280;64039;53.060;9.342;2024-01-30T11:01:20;102130.75;;;8.34;100.00
75460;BME280;64039;53.060;9.342;2024-01-30T11:03:50;102122.91;;;8.33;100.00
75460;BME280;64039;53.060;9.342;2024-01-30T11:06:16;102126.84;;;8.43;100.00
75460;BME280;64039;53.060;9.342;2024-01-30T11:08:44;102119.97;;;8.43;100.00
75460;BME280;64039;53.060;9.342;2024-01-30T11:11:10;102126.38;;;8.50;100.00
75460;BME280;64039;53.060;9.342;2024-01-30T11:13:36;102129.66;;;8.64;100.00
75460;BME280;64039;53.060;9.342;2024-01-30T11:16:02;102117.97;;;8.72;100.00
75460;BME280;64039;53.060;9.342;2024-01-30T11:18:32;102121.00;;;8.63;100.00
75460;BME280;64039;53.060;9.342;2024-01-30T11:21:01;102116.34;;;8.74;100.00
75460;BME280;64039;53.060;9.342;2024-01-30T11:23:28;102117.31;;;8.76;100.00
75460;BME280;64039;53.060;9.342;2024-01-30T11:25:54;102122.06;;;8.85;100.00
75460;BME280;64039;53.060;9.342;2024-01-30T11:28:21;102133.19;;;9.01;100.00
75460;BME280;64039;53.060;9.342;2024-01-30T11:30:47;102129.94;;;9.05;100.00
75460;BME280;64039;53.060;9.342;2024-01-30T11:33:27;102128.97;;;9.03;100.00
75460;BME280;64039;53.060;9.342;2024-01-30T11:35:52;102116.88;;;9.03;100.00
75460;BME280;64039;53.060;9.342;2024-01-30T11:38:18;102124.16;;;9.10;100.00
75460;BME280;64039;53.060;9.342;2024-01-30T11:40:43;102116.06;;;9.22;100.00
75460;BME280;64039;53.060;9.342;2024-01-30T11:43:09;102105.03;;;9.28;100.00
75460;BME280;64039;53.060;9.342;2024-01-30T11:45:36;102114.72;;;9.31;100.00
75460;BME280;64039;53.060;9.342;2024-01-30T11:48:02;102115.88;;;9.37;100.00
75460;BME280;64039;53.060;9.342;2024-01-30T11:50:31;102111.53;;;9.56;100.00
75460;BME280;64039;53.060;9.342;2024-01-30T11:52:58;102110.69;;;9.37;100.00
75460;BME280;64039;53.060;9.342;2024-01-30T11:55:24;102108.44;;;9.45;100.00
75460;BME280;64039;53.060;9.342;2024-01-30T11:57:49;102108.19;;;9.58;100.00
75460;BME280;64039;53.060;9.342;2024-01-30T12:00:16;102110.34;;;9.67;100.00
75460;BME280;64039;53.060;9.342;2024-01-30T12:02:43;102108.63;;;9.68;100.00
75460;BME280;64039;53.060;9.342;2024-01-30T12:05:09;102092.91;;;9.65;100.00
75460;BME280;64039;53.060;9.342;2024-01-30T12:07:36;102093.50;;;9.79;100.00
75460;BME280;64039;53.060;9.342;2024-01-30T12:10:01;102084.78;;;9.58;100.00
75460;BME280;64039;53.060;9.342;2024-01-30T12:12:28;102091.38;;;9.70;100.00
75460;BME280;64039;53.060;9.342;2024-01-30T12:14:55;102089.41;;;9.84;100.00
75460;BME280;64039;53.060;9.342;2024-01-30T12:17:30;102096.72;;;9.73;100.00
75460;BME280;64039;53.060;9.342;2024-01-30T12:20:06;102097.31;;;9.87;100.00
75460;BME280;64039;53.060;9.342;2024-01-30T12:22:42;102095.44;;;9.83;100.00
75460;BME280;64039;53.060;9.342;2024-01-30T12:25:10;102103.28;;;9.84;100.00
75460;BME280;64039;53.060;9.342;2024-01-30T12:27:37;102099.13;;;9.68;100.00
75460;BME280;64039;53.060;9.342;2024-01-30T12:30:09;102102.94;;;9.57;100.00
75460;BME280;64039;53.060;9.342;2024-01-30T12:32:36;102108.28;;;9.60;100.00
75460;BME280;64039;53.060;9.342;2024-01-30T12:35:02;102106.28;;;9.54;100.00
75460;BME280;64039;53.060;9.342;2024-01-30T12:37:29;102116.13;;;9.62;100.00
75460;BME280;64039;53.060;9.342;2024-01-30T12:39:56;102119.72;;;9.64;100.00
75460;BME280;64039;53.060;9.342;2024-01-30T12:42:22;102119.44;;;9.39;100.00
75460;BME280;64039;53.060;9.342;2024-01-30T12:44:48;102122.50;;;9.31;100.00